sensor_id;sensor_type;location;lat;lon;timestamp;P1;durP1;ratioP1;P2;durP2;ratioP2
7195;SDS011;3639;51.308;5.624;2023-03-16T00:01:26;6.60;;;4.70;;
7195;SDS011;3639;51.308;5.624;2023-03-16T00:03:52;6.10;;;4.77;;
7195;SDS011;3639;51.308;5.624;2023-03-16T00:06:17;5.17;;;4.67;;
7195;SDS011;3639;51.308;5.624;2023-03-16T00:08:43;5.77;;;5.10;;
7195;SDS011;3639;51.308;5.624;2023-03-16T00:11:09;7.83;;;5.20;;
7195;SDS011;3639;51.308;5.624;2023-03-16T00:13:36;8.10;;;5.47;;
7195;SDS011;3639;51.308;5.624;2023-03-16T00:16:01;6.90;;;4.90;;
7195;SDS011;3639;51.308;5.624;2023-03-16T00:18:31;6.87;;;5.17;;
7195;SDS011;3639;51.308;5.624;2023-03-16T00:21:03;5.43;;;4.73;;
7195;SDS011;3639;51.308;5.624;2023-03-16T00:23:30;7.77;;;4.60;;
7195;SDS011;3639;51.308;5.624;2023-03-16T00:26:00;5.97;;;4.73;;
7195;SDS011;3639;51.308;5.624;2023-03-16T00:28:31;7.07;;;4.77;;
7195;SDS011;3639;51.308;5.624;2023-03-16T00:31:00;8.30;;;5.00;;
7195;SDS011;3639;51.308;5.624;2023-03-16T00:33:30;7.33;;;5.70;;
7195;SDS011;3639;51.308;5.624;2023-03-16T00:36:02;8.67;;;5.67;;
7195;SDS011;3639;51.308;5.624;2023-03-16T00:38:30;7.37;;;5.33;;
7195;SDS011;3639;51.308;5.624;2023-03-16T00:40:58;7.97;;;5.27;;
7195;SDS011;3639;51.308;5.624;2023-03-16T00:43:28;8.60;;;5.13;;
7195;SDS011;3639;51.308;5.624;2023-03-16T00:45:58;6.30;;;5.07;;
7195;SDS011;3639;51.308;5.624;2023-03-16T00:48:30;7.37;;;4.93;;
7195;SDS011;3639;51.308;5.624;2023-03-16T00:51:07;8.87;;;5.07;;
7195;SDS011;3639;51.308;5.624;2023-03-16T00:53:36;6.73;;;4.77;;
7195;SDS011;3639;51.308;5.624;2023-03-16T00:56:03;5.20;;;4.70;;
7195;SDS011;3639;51.308;5.624;2023-03-16T00:58:29;7.53;;;4.97;;
7195;SDS011;3639;51.308;5.624;2023-03-16T01:01:00;7.53;;;5.00;;
7195;SDS011;3639;51.308;5.624;2023-03-16T01:03:29;5.87;;;4.73;;
7195;SDS011;3639;51.308;5.624;2023-03-16T01:05:56;8.57;;;4.87;;
7195;SDS011;3639;51.308;5.624;2023-03-16T01:08:24;8.13;;;5.30;;
7195;SDS011;3639;51.308;5.624;2023-03-16T01:10:52;5.53;;;4.73;;
7195;SDS011;3639;51.308;5.624;2023-03-16T01:13:18;5.23;;;4.70;;
7195;SDS011;3639;51.308;5.624;2023-03-16T01:15:44;5.17;;;4.63;;
7195;SDS011;3639;51.308;5.624;2023-03-16T01:18:10;6.30;;;5.07;;
7195;SDS011;3639;51.308;5.624;2023-03-16T01:20:37;6.63;;;4.83;;
7195;SDS011;3639;51.308;5.624;2023-03-16T01:23:03;7.67;;;4.83;;
7195;SDS011;3639;51.308;5.624;2023-03-16T01:25:29;7.30;;;5.03;;
7195;SDS011;3639;51.308;5.624;2023-03-16T01:27:56;5.83;;;5.00;;
7195;SDS011;3639;51.308;5.624;2023-03-16T01:30:22;9.60;;;4.67;;
7195;SDS011;3639;51.308;5.624;2023-03-16T01:32:48;9.43;;;4.50;;
7195;SDS011;3639;51.308;5.624;2023-03-16T01:35:13;5.80;;;4.47;;
7195;SDS011;3639;51.308;5.624;2023-03-16T01:37:39;5.80;;;4.83;;
7195;SDS011;3639;51.308;5.624;2023-03-16T01:40:05;6.17;;;4.77;;
7195;SDS011;3639;51.308;5.624;2023-03-16T01:42:40;6.57;;;5.03;;
7195;SDS011;3639;51.308;5.624;2023-03-16T01:48:17;7.10;;;4.57;;
7195;SDS011;3639;51.308;5.624;2023-03-16T01:50:44;9.13;;;4.77;;
7195;SDS011;3639;51.308;5.624;2023-03-16T01:53:10;6.73;;;4.13;;
7195;SDS011;3639;51.308;5.624;2023-03-16T01:55:35;6.73;;;4.40;;
7195;SDS011;3639;51.308;5.624;2023-03-16T01:58:01;8.93;;;4.97;;
7195;SDS011;3639;51.308;5.624;2023-03-16T02:00:27;6.37;;;5.07;;
7195;SDS011;3639;51.308;5.624;2023-03-16T02:02:58;5.80;;;4.53;;
7195;SDS011;3639;51.308;5.624;2023-03-16T02:05:31;5.90;;;4.30;;
7195;SDS011;3639;51.308;5.624;2023-03-16T02:08:03;7.73;;;5.33;;
7195;SDS011;3639;51.308;5.624;2023-03-16T02:10:30;11.63;;;4.43;;
7195;SDS011;3639;51.308;5.624;2023-03-16T02:12:57;6.27;;;4.77;;
7195;SDS011;3639;51.308;5.624;2023-03-16T02:15:23;6.13;;;4.30;;
7195;SDS011;3639;51.308;5.624;2023-03-16T02:17:49;5.13;;;4.03;;
7195;SDS011;3639;51.308;5.624;2023-03-16T02:20:22;7.63;;;5.50;;
7195;SDS011;3639;51.308;5.624;2023-03-16T02:23:04;6.10;;;4.50;;
7195;SDS011;3639;51.308;5.624;2023-03-16T02:25:38;5.53;;;4.30;;
7195;SDS011;3639;51.308;5.624;2023-03-16T02:30:46;6.00;;;4.70;;
7195;SDS011;3639;51.308;5.624;2023-03-16T02:33:12;4.80;;;4.07;;
7195;SDS011;3639;51.308;5.624;2023-03-16T02:35:39;6.10;;;5.00;;
7195;SDS011;3639;51.308;5.624;2023-03-16T02:38:05;7.70;;;5.10;;
7195;SDS011;3639;51.308;5.624;2023-03-16T02:40:32;6.07;;;4.33;;
7195;SDS011;3639;51.308;5.624;2023-03-16T02:45:26;7.17;;;5.17;;
7195;SDS011;3639;51.308;5.624;2023-03-16T02:48:00;8.33;;;5.40;;
7195;SDS011;3639;51.308;5.624;2023-03-16T02:50:31;6.67;;;4.83;;
7195;SDS011;3639;51.308;5.624;2023-03-16T02:52:57;7.87;;;4.67;;
7195;SDS011;3639;51.308;5.624;2023-03-16T02:55:23;8.33;;;4.40;;
7195;SDS011;3639;51.308;5.624;2023-03-16T02:57:48;6.03;;;4.87;;
7195;SDS011;3639;51.308;5.624;2023-03-16T03:00:14;9.23;;;4.43;;
7195;SDS011;3639;51.308;5.624;2023-03-16T03:02:42;7.90;;;5.00;;
7195;SDS011;3639;51.308;5.624;2023-03-16T03:05:08;5.77;;;4.53;;
7195;SDS011;3639;51.308;5.624;2023-03-16T03:07:34;7.13;;;4.63;;
7195;SDS011;3639;51.308;5.624;2023-03-16T03:09:59;6.17;;;4.90;;
7195;SDS011;3639;51.308;5.624;2023-03-16T03:12:30;6.20;;;4.40;;
7195;SDS011;3639;51.308;5.624;2023-03-16T03:14:56;5.23;;;4.37;;
7195;SDS011;3639;51.308;5.624;2023-03-16T03:17:22;5.13;;;4.63;;
7195;SDS011;3639;51.308;5.624;2023-03-16T03:19:54;5.17;;;4.47;;
7195;SDS011;3639;51.308;5.624;2023-03-16T03:22:24;7.30;;;4.87;;
7195;SDS011;3639;51.308;5.624;2023-03-16T03:24:50;5.00;;;4.00;;
7195;SDS011;3639;51.308;5.624;2023-03-16T03:27:17;5.33;;;4.20;;
7195;SDS011;3639;51.308;5.624;2023-03-16T03:29:43;7.77;;;4.53;;
7195;SDS011;3639;51.308;5.624;2023-03-16T03:32:09;5.77;;;4.07;;
7195;SDS011;3639;51.308;5.624;2023-03-16T03:34:35;6.87;;;4.60;;
7195;SDS011;3639;51.308;5.624;2023-03-16T03:37:01;6.33;;;4.20;;
7195;SDS011;3639;51.308;5.624;2023-03-16T03:39:26;5.60;;;4.27;;
7195;SDS011;3639;51.308;5.624;2023-03-16T03:41:52;6.87;;;4.43;;
7195;SDS011;3639;51.308;5.624;2023-03-16T03:44:19;5.73;;;4.13;;
7195;SDS011;3639;51.308;5.624;2023-03-16T03:46:48;5.93;;;4.80;;
7195;SDS011;3639;51.308;5.624;2023-03-16T03:49:15;8.00;;;4.50;;
7195;SDS011;3639;51.308;5.624;2023-03-16T03:51:41;8.10;;;4.53;;
7195;SDS011;3639;51.308;5.624;2023-03-16T03:54:08;5.57;;;4.33;;
7195;SDS011;3639;51.308;5.624;2023-03-16T03:56:34;9.17;;;4.60;;
7195;SDS011;3639;51.308;5.624;2023-03-16T03:59:00;4.97;;;4.03;;
7195;SDS011;3639;51.308;5.624;2023-03-16T04:01:25;5.33;;;4.03;;
7195;SDS011;3639;51.308;5.624;2023-03-16T04:03:51;7.67;;;4.10;;
7195;SDS011;3639;51.308;5.624;2023-03-16T04:06:17;5.97;;;4.47;;
7195;SDS011;3639;51.308;5.624;2023-03-16T04:08:42;4.77;;;4.23;;
7195;SDS011;3639;51.308;5.624;2023-03-16T04:11:08;3.87;;;3.40;;
7195;SDS011;3639;51.308;5.624;2023-03-16T04:13:34;5.53;;;4.30;;
7195;SDS011;3639;51.308;5.624;2023-03-16T04:16:00;5.53;;;3.83;;
7195;SDS011;3639;51.308;5.624;2023-03-16T04:18:29;5.70;;;4.40;;
7195;SDS011;3639;51.308;5.624;2023-03-16T04:21:05;4.20;;;3.80;;
7195;SDS011;3639;51.308;5.624;2023-03-16T04:23:31;8.40;;;4.20;;
7195;SDS011;3639;51.308;5.624;2023-03-16T04:25:58;9.57;;;3.97;;
7195;SDS011;3639;51.308;5.624;2023-03-16T04:28:24;6.60;;;4.00;;
7195;SDS011;3639;51.308;5.624;2023-03-16T04:30:53;4.33;;;3.70;;
7195;SDS011;3639;51.308;5.624;2023-03-16T04:33:19;5.80;;;3.80;;
7195;SDS011;3639;51.308;5.624;2023-03-16T04:35:46;3.77;;;3.43;;
7195;SDS011;3639;51.308;5.624;2023-03-16T04:38:12;5.73;;;3.60;;
7195;SDS011;3639;51.308;5.624;2023-03-16T04:40:38;5.27;;;3.50;;
7195;SDS011;3639;51.308;5.624;2023-03-16T04:43:03;4.67;;;3.20;;
7195;SDS011;3639;51.308;5.624;2023-03-16T04:45:29;4.50;;;3.00;;
7195;SDS011;3639;51.308;5.624;2023-03-16T04:47:56;4.10;;;3.40;;
7195;SDS011;3639;51.308;5.624;2023-03-16T04:50:21;4.53;;;3.50;;
7195;SDS011;3639;51.308;5.624;2023-03-16T04:52:47;5.60;;;3.13;;
7195;SDS011;3639;51.308;5.624;2023-03-16T04:55:13;3.80;;;3.07;;
7195;SDS011;3639;51.308;5.624;2023-03-16T04:57:38;3.80;;;3.27;;
7195;SDS011;3639;51.308;5.624;2023-03-16T05:00:04;4.30;;;3.40;;
7195;SDS011;3639;51.308;5.624;2023-03-16T05:02:42;5.60;;;4.00;;
7195;SDS011;3639;51.308;5.624;2023-03-16T05:05:08;3.83;;;3.43;;
7195;SDS011;3639;51.308;5.624;2023-03-16T05:07:34;5.37;;;3.40;;
7195;SDS011;3639;51.308;5.624;2023-03-16T05:09:59;5.07;;;3.50;;
7195;SDS011;3639;51.308;5.624;2023-03-16T05:12:25;6.73;;;3.30;;
7195;SDS011;3639;51.308;5.624;2023-03-16T05:14:51;6.13;;;3.30;;
7195;SDS011;3639;51.308;5.624;2023-03-16T05:17:18;3.57;;;3.27;;
7195;SDS011;3639;51.308;5.624;2023-03-16T05:19:43;5.60;;;3.10;;
7195;SDS011;3639;51.308;5.624;2023-03-16T05:22:09;3.90;;;3.10;;
7195;SDS011;3639;51.308;5.624;2023-03-16T05:24:36;7.63;;;3.43;;
7195;SDS011;3639;51.308;5.624;2023-03-16T05:27:02;4.93;;;3.43;;
7195;SDS011;3639;51.308;5.624;2023-03-16T05:29:28;5.30;;;3.63;;
7195;SDS011;3639;51.308;5.624;2023-03-16T05:31:55;5.33;;;3.27;;
7195;SDS011;3639;51.308;5.624;2023-03-16T05:34:21;7.07;;;3.63;;
7195;SDS011;3639;51.308;5.624;2023-03-16T05:36:47;5.47;;;3.50;;
7195;SDS011;3639;51.308;5.624;2023-03-16T05:39:13;4.50;;;3.50;;
7195;SDS011;3639;51.308;5.624;2023-03-16T05:41:38;3.60;;;3.30;;
7195;SDS011;3639;51.308;5.624;2023-03-16T05:44:04;4.90;;;3.03;;
7195;SDS011;3639;51.308;5.624;2023-03-16T05:46:30;4.33;;;3.80;;
7195;SDS011;3639;51.308;5.624;2023-03-16T05:48:56;5.33;;;3.53;;
7195;SDS011;3639;51.308;5.624;2023-03-16T05:51:21;4.30;;;3.43;;
7195;SDS011;3639;51.308;5.624;2023-03-16T05:53:50;6.67;;;3.70;;
7195;SDS011;3639;51.308;5.624;2023-03-16T05:56:16;4.00;;;3.60;;
7195;SDS011;3639;51.308;5.624;2023-03-16T05:58:42;4.33;;;3.57;;
7195;SDS011;3639;51.308;5.624;2023-03-16T06:01:08;6.53;;;3.00;;
7195;SDS011;3639;51.308;5.624;2023-03-16T06:03:35;8.53;;;4.70;;
7195;SDS011;3639;51.308;5.624;2023-03-16T06:06:00;4.03;;;3.30;;
7195;SDS011;3639;51.308;5.624;2023-03-16T06:08:26;5.77;;;3.30;;
7195;SDS011;3639;51.308;5.624;2023-03-16T06:10:52;4.47;;;3.60;;
7195;SDS011;3639;51.308;5.624;2023-03-16T06:13:17;5.57;;;3.53;;
7195;SDS011;3639;51.308;5.624;2023-03-16T06:15:43;4.43;;;4.03;;
7195;SDS011;3639;51.308;5.624;2023-03-16T06:18:09;4.97;;;3.47;;
7195;SDS011;3639;51.308;5.624;2023-03-16T06:20:35;3.60;;;3.30;;
7195;SDS011;3639;51.308;5.624;2023-03-16T06:23:01;7.37;;;4.47;;
7195;SDS011;3639;51.308;5.624;2023-03-16T06:25:26;6.00;;;4.43;;
7195;SDS011;3639;51.308;5.624;2023-03-16T06:27:52;3.77;;;3.43;;
7195;SDS011;3639;51.308;5.624;2023-03-16T06:30:18;6.33;;;3.77;;
7195;SDS011;3639;51.308;5.624;2023-03-16T06:32:43;6.90;;;3.87;;
7195;SDS011;3639;51.308;5.624;2023-03-16T06:35:10;6.47;;;4.03;;
7195;SDS011;3639;51.308;5.624;2023-03-16T06:37:36;4.50;;;3.80;;
7195;SDS011;3639;51.308;5.624;2023-03-16T06:40:02;6.67;;;3.77;;
7195;SDS011;3639;51.308;5.624;2023-03-16T06:42:28;6.00;;;3.73;;
7195;SDS011;3639;51.308;5.624;2023-03-16T06:44:53;7.40;;;5.10;;
7195;SDS011;3639;51.308;5.624;2023-03-16T06:47:19;7.47;;;4.17;;
7195;SDS011;3639;51.308;5.624;2023-03-16T06:49:45;6.40;;;4.43;;
7195;SDS011;3639;51.308;5.624;2023-03-16T06:52:11;6.73;;;4.07;;
7195;SDS011;3639;51.308;5.624;2023-03-16T06:54:38;4.90;;;3.90;;
7195;SDS011;3639;51.308;5.624;2023-03-16T06:57:05;4.00;;;3.53;;
7195;SDS011;3639;51.308;5.624;2023-03-16T06:59:31;6.40;;;3.50;;
7195;SDS011;3639;51.308;5.624;2023-03-16T07:01:57;4.33;;;3.40;;
7195;SDS011;3639;51.308;5.624;2023-03-16T07:04:22;6.33;;;4.13;;
7195;SDS011;3639;51.308;5.624;2023-03-16T07:06:48;8.23;;;4.00;;
7195;SDS011;3639;51.308;5.624;2023-03-16T07:09:13;7.40;;;3.97;;
7195;SDS011;3639;51.308;5.624;2023-03-16T07:11:39;6.03;;;4.23;;
7195;SDS011;3639;51.308;5.624;2023-03-16T07:14:05;6.17;;;3.83;;
7195;SDS011;3639;51.308;5.624;2023-03-16T07:16:31;12.33;;;4.57;;
7195;SDS011;3639;51.308;5.624;2023-03-16T07:18:56;4.90;;;3.60;;
7195;SDS011;3639;51.308;5.624;2023-03-16T07:21:22;5.40;;;4.17;;
7195;SDS011;3639;51.308;5.624;2023-03-16T07:23:48;6.57;;;4.20;;
7195;SDS011;3639;51.308;5.624;2023-03-16T07:26:14;4.50;;;3.63;;
7195;SDS011;3639;51.308;5.624;2023-03-16T07:28:40;8.20;;;4.20;;
7195;SDS011;3639;51.308;5.624;2023-03-16T07:31:05;5.27;;;4.13;;
7195;SDS011;3639;51.308;5.624;2023-03-16T07:33:32;5.47;;;4.70;;
7195;SDS011;3639;51.308;5.624;2023-03-16T07:35:58;8.03;;;4.00;;
7195;SDS011;3639;51.308;5.624;2023-03-16T07:38:24;8.73;;;3.83;;
7195;SDS011;3639;51.308;5.624;2023-03-16T07:40:50;7.07;;;4.00;;
7195;SDS011;3639;51.308;5.624;2023-03-16T07:43:18;5.03;;;4.40;;
7195;SDS011;3639;51.308;5.624;2023-03-16T07:45:47;4.93;;;3.83;;
7195;SDS011;3639;51.308;5.624;2023-03-16T07:48:14;6.57;;;4.43;;
7195;SDS011;3639;51.308;5.624;2023-03-16T07:50:40;4.80;;;3.83;;
7195;SDS011;3639;51.308;5.624;2023-03-16T07:53:05;6.83;;;4.00;;
7195;SDS011;3639;51.308;5.624;2023-03-16T07:55:31;5.63;;;3.53;;
7195;SDS011;3639;51.308;5.624;2023-03-16T07:58:00;6.63;;;3.97;;
7195;SDS011;3639;51.308;5.624;2023-03-16T08:00:26;6.13;;;4.23;;
7195;SDS011;3639;51.308;5.624;2023-03-16T08:02:52;6.63;;;3.77;;
7195;SDS011;3639;51.308;5.624;2023-03-16T08:05:18;4.30;;;3.60;;
7195;SDS011;3639;51.308;5.624;2023-03-16T08:07:43;5.43;;;4.03;;
7195;SDS011;3639;51.308;5.624;2023-03-16T08:10:10;8.97;;;3.60;;
7195;SDS011;3639;51.308;5.624;2023-03-16T08:12:36;8.97;;;3.83;;
7195;SDS011;3639;51.308;5.624;2023-03-16T08:15:01;4.70;;;3.63;;
7195;SDS011;3639;51.308;5.624;2023-03-16T08:17:27;4.47;;;3.30;;
7195;SDS011;3639;51.308;5.624;2023-03-16T08:19:53;3.97;;;3.50;;
7195;SDS011;3639;51.308;5.624;2023-03-16T08:22:18;3.80;;;3.47;;
7195;SDS011;3639;51.308;5.624;2023-03-16T08:24:44;4.13;;;3.17;;
7195;SDS011;3639;51.308;5.624;2023-03-16T08:27:10;3.30;;;2.97;;
7195;SDS011;3639;51.308;5.624;2023-03-16T08:29:37;4.43;;;3.37;;
7195;SDS011;3639;51.308;5.624;2023-03-16T08:32:02;4.93;;;3.73;;
7195;SDS011;3639;51.308;5.624;2023-03-16T08:34:28;4.97;;;3.23;;
7195;SDS011;3639;51.308;5.624;2023-03-16T08:36:54;5.37;;;3.23;;
7195;SDS011;3639;51.308;5.624;2023-03-16T08:39:20;6.10;;;3.77;;
7195;SDS011;3639;51.308;5.624;2023-03-16T08:41:45;6.53;;;3.30;;
7195;SDS011;3639;51.308;5.624;2023-03-16T08:44:12;3.77;;;3.30;;
7195;SDS011;3639;51.308;5.624;2023-03-16T08:46:37;3.67;;;3.10;;
7195;SDS011;3639;51.308;5.624;2023-03-16T08:49:04;4.00;;;3.43;;
7195;SDS011;3639;51.308;5.624;2023-03-16T08:51:31;4.70;;;3.93;;
7195;SDS011;3639;51.308;5.624;2023-03-16T08:53:57;3.37;;;2.97;;
7195;SDS011;3639;51.308;5.624;2023-03-16T08:56:23;9.73;;;3.20;;
7195;SDS011;3639;51.308;5.624;2023-03-16T08:58:49;4.50;;;3.33;;
7195;SDS011;3639;51.308;5.624;2023-03-16T09:01:15;3.40;;;2.63;;
7195;SDS011;3639;51.308;5.624;2023-03-16T09:03:43;3.47;;;2.70;;
7195;SDS011;3639;51.308;5.624;2023-03-16T09:06:14;4.00;;;2.57;;
7195;SDS011;3639;51.308;5.624;2023-03-16T09:08:41;3.77;;;3.00;;
7195;SDS011;3639;51.308;5.624;2023-03-16T09:11:12;3.67;;;2.77;;
7195;SDS011;3639;51.308;5.624;2023-03-16T09:13:40;6.37;;;3.00;;
7195;SDS011;3639;51.308;5.624;2023-03-16T09:16:07;3.90;;;2.77;;
7195;SDS011;3639;51.308;5.624;2023-03-16T09:18:34;4.63;;;2.90;;
7195;SDS011;3639;51.308;5.624;2023-03-16T09:21:01;5.33;;;2.50;;
7195;SDS011;3639;51.308;5.624;2023-03-16T09:23:29;5.63;;;3.20;;
7195;SDS011;3639;51.308;5.624;2023-03-16T09:25:56;4.17;;;2.60;;
7195;SDS011;3639;51.308;5.624;2023-03-16T09:28:23;4.83;;;2.77;;
7195;SDS011;3639;51.308;5.624;2023-03-16T09:30:51;4.87;;;2.53;;
7195;SDS011;3639;51.308;5.624;2023-03-16T09:33:22;2.60;;;2.40;;
7195;SDS011;3639;51.308;5.624;2023-03-16T09:35:48;3.10;;;2.30;;
7195;SDS011;3639;51.308;5.624;2023-03-16T09:38:14;5.77;;;2.97;;
7195;SDS011;3639;51.308;5.624;2023-03-16T09:40:42;3.27;;;2.70;;
7195;SDS011;3639;51.308;5.624;2023-03-16T09:46:06;4.67;;;2.57;;
7195;SDS011;3639;51.308;5.624;2023-03-16T09:48:39;3.80;;;2.50;;
7195;SDS011;3639;51.308;5.624;2023-03-16T09:51:40;2.70;;;2.50;;
7195;SDS011;3639;51.308;5.624;2023-03-16T09:54:17;3.20;;;2.47;;
7195;SDS011;3639;51.308;5.624;2023-03-16T09:56:51;4.70;;;2.67;;
7195;SDS011;3639;51.308;5.624;2023-03-16T09:59:19;3.73;;;3.00;;
7195;SDS011;3639;51.308;5.624;2023-03-16T10:04:38;4.73;;;2.70;;
7195;SDS011;3639;51.308;5.624;2023-03-16T10:09:55;3.33;;;2.57;;
7195;SDS011;3639;51.308;5.624;2023-03-16T10:12:30;4.90;;;2.50;;
7195;SDS011;3639;51.308;5.624;2023-03-16T10:15:09;3.93;;;2.30;;
7195;SDS011;3639;51.308;5.624;2023-03-16T10:20:32;2.53;;;2.33;;
7195;SDS011;3639;51.308;5.624;2023-03-16T10:22:58;5.10;;;2.17;;
7195;SDS011;3639;51.308;5.624;2023-03-16T10:28:51;3.87;;;2.60;;
7195;SDS011;3639;51.308;5.624;2023-03-16T10:31:19;5.70;;;2.43;;
7195;SDS011;3639;51.308;5.624;2023-03-16T10:33:47;2.90;;;2.57;;
7195;SDS011;3639;51.308;5.624;2023-03-16T10:39:06;4.77;;;2.73;;
7195;SDS011;3639;51.308;5.624;2023-03-16T10:41:39;4.77;;;2.63;;
7195;SDS011;3639;51.308;5.624;2023-03-16T10:44:15;3.13;;;2.40;;
7195;SDS011;3639;51.308;5.624;2023-03-16T10:46:47;2.33;;;2.10;;
7195;SDS011;3639;51.308;5.624;2023-03-16T10:49:22;4.40;;;2.40;;
7195;SDS011;3639;51.308;5.624;2023-03-16T10:51:54;2.87;;;2.47;;
7195;SDS011;3639;51.308;5.624;2023-03-16T10:56:54;2.80;;;2.23;;
7195;SDS011;3639;51.308;5.624;2023-03-16T11:01:56;2.57;;;2.37;;
7195;SDS011;3639;51.308;5.624;2023-03-16T11:04:22;3.27;;;2.20;;
7195;SDS011;3639;51.308;5.624;2023-03-16T11:06:52;3.30;;;2.00;;
7195;SDS011;3639;51.308;5.624;2023-03-16T11:09:21;3.97;;;2.33;;
7195;SDS011;3639;51.308;5.624;2023-03-16T11:11:57;3.30;;;2.20;;
7195;SDS011;3639;51.308;5.624;2023-03-16T11:14:25;2.30;;;2.00;;
7195;SDS011;3639;51.308;5.624;2023-03-16T11:16:59;4.70;;;2.10;;
7195;SDS011;3639;51.308;5.624;2023-03-16T11:19:51;3.90;;;2.00;;
7195;SDS011;3639;51.308;5.624;2023-03-16T11:22:19;2.57;;;1.77;;
7195;SDS011;3639;51.308;5.624;2023-03-16T11:27:25;3.73;;;2.00;;
7195;SDS011;3639;51.308;5.624;2023-03-16T11:32:49;4.07;;;2.20;;
7195;SDS011;3639;51.308;5.624;2023-03-16T11:38:15;2.93;;;1.80;;
7195;SDS011;3639;51.308;5.624;2023-03-16T11:46:16;2.13;;;1.90;;
7195;SDS011;3639;51.308;5.624;2023-03-16T11:49:04;2.60;;;1.73;;
7195;SDS011;3639;51.308;5.624;2023-03-16T11:57:25;1.60;;;1.50;;
7195;SDS011;3639;51.308;5.624;2023-03-16T12:08:06;2.33;;;1.43;;
7195;SDS011;3639;51.308;5.624;2023-03-16T12:11:01;2.17;;;1.50;;
7195;SDS011;3639;51.308;5.624;2023-03-16T12:19:21;3.70;;;1.67;;
7195;SDS011;3639;51.308;5.624;2023-03-16T12:21:59;3.37;;;1.57;;
7195;SDS011;3639;51.308;5.624;2023-03-16T12:24:32;2.53;;;1.60;;
7195;SDS011;3639;51.308;5.624;2023-03-16T12:27:02;3.73;;;1.40;;
7195;SDS011;3639;51.308;5.624;2023-03-16T12:29:40;2.20;;;1.83;;
7195;SDS011;3639;51.308;5.624;2023-03-16T12:32:24;2.83;;;1.63;;
7195;SDS011;3639;51.308;5.624;2023-03-16T12:40:48;2.70;;;1.47;;
7195;SDS011;3639;51.308;5.624;2023-03-16T12:47:02;2.43;;;1.50;;
7195;SDS011;3639;51.308;5.624;2023-03-16T12:49:44;4.37;;;1.77;;
7195;SDS011;3639;51.308;5.624;2023-03-16T12:52:11;4.63;;;1.50;;
7195;SDS011;3639;51.308;5.624;2023-03-16T12:54:48;3.23;;;1.70;;
7195;SDS011;3639;51.308;5.624;2023-03-16T12:57:16;2.27;;;1.80;;
7195;SDS011;3639;51.308;5.624;2023-03-16T12:59:44;3.80;;;1.87;;
7195;SDS011;3639;51.308;5.624;2023-03-16T13:02:16;3.00;;;1.90;;
7195;SDS011;3639;51.308;5.624;2023-03-16T13:05:09;4.03;;;1.90;;
7195;SDS011;3639;51.308;5.624;2023-03-16T13:07:48;2.07;;;1.53;;
7195;SDS011;3639;51.308;5.624;2023-03-16T13:10:16;2.93;;;1.50;;
7195;SDS011;3639;51.308;5.624;2023-03-16T13:12:45;1.80;;;1.57;;
7195;SDS011;3639;51.308;5.624;2023-03-16T13:15:29;5.33;;;1.70;;
7195;SDS011;3639;51.308;5.624;2023-03-16T13:21:19;3.87;;;1.90;;
7195;SDS011;3639;51.308;5.624;2023-03-16T13:23:24;2.30;;;1.67;;
7195;SDS011;3639;51.308;5.624;2023-03-16T13:28:40;2.67;;;1.60;;
7195;SDS011;3639;51.308;5.624;2023-03-16T13:31:42;3.13;;;1.60;;
7195;SDS011;3639;51.308;5.624;2023-03-16T13:34:05;2.20;;;1.50;;
7195;SDS011;3639;51.308;5.624;2023-03-16T13:36:35;4.57;;;2.40;;
7195;SDS011;3639;51.308;5.624;2023-03-16T13:39:06;3.67;;;1.80;;
7195;SDS011;3639;51.308;5.624;2023-03-16T13:41:40;5.23;;;1.70;;
7195;SDS011;3639;51.308;5.624;2023-03-16T13:44:15;6.07;;;2.10;;
7195;SDS011;3639;51.308;5.624;2023-03-16T13:46:41;3.63;;;1.73;;
7195;SDS011;3639;51.308;5.624;2023-03-16T13:49:10;2.37;;;1.50;;
7195;SDS011;3639;51.308;5.624;2023-03-16T13:51:37;1.73;;;1.50;;
7195;SDS011;3639;51.308;5.624;2023-03-16T13:54:04;2.03;;;1.50;;
7195;SDS011;3639;51.308;5.624;2023-03-16T13:56:41;2.13;;;1.40;;
7195;SDS011;3639;51.308;5.624;2023-03-16T13:59:07;2.13;;;1.70;;
7195;SDS011;3639;51.308;5.624;2023-03-16T14:01:34;2.50;;;1.60;;
7195;SDS011;3639;51.308;5.624;2023-03-16T14:04:01;3.47;;;1.80;;
7195;SDS011;3639;51.308;5.624;2023-03-16T14:06:32;1.53;;;1.20;;
7195;SDS011;3639;51.308;5.624;2023-03-16T14:09:06;1.70;;;1.50;;
7195;SDS011;3639;51.308;5.624;2023-03-16T14:11:41;2.60;;;1.50;;
7195;SDS011;3639;51.308;5.624;2023-03-16T14:14:12;3.70;;;1.50;;
7195;SDS011;3639;51.308;5.624;2023-03-16T14:16:40;3.47;;;1.60;;
7195;SDS011;3639;51.308;5.624;2023-03-16T14:19:16;1.60;;;1.50;;
7195;SDS011;3639;51.308;5.624;2023-03-16T14:21:46;4.07;;;1.80;;
7195;SDS011;3639;51.308;5.624;2023-03-16T14:24:22;1.87;;;1.37;;
7195;SDS011;3639;51.308;5.624;2023-03-16T14:26:52;2.20;;;1.60;;
7195;SDS011;3639;51.308;5.624;2023-03-16T14:31:54;2.10;;;1.40;;
7195;SDS011;3639;51.308;5.624;2023-03-16T14:37:14;3.83;;;1.80;;
7195;SDS011;3639;51.308;5.624;2023-03-16T14:39:43;1.47;;;1.37;;
7195;SDS011;3639;51.308;5.624;2023-03-16T14:42:20;3.67;;;1.60;;
7195;SDS011;3639;51.308;5.624;2023-03-16T14:44:52;2.30;;;1.80;;
7195;SDS011;3639;51.308;5.624;2023-03-16T14:47:21;2.40;;;1.93;;
7195;SDS011;3639;51.308;5.624;2023-03-16T14:49:53;2.40;;;1.47;;
7195;SDS011;3639;51.308;5.624;2023-03-16T14:52:28;3.57;;;1.60;;
7195;SDS011;3639;51.308;5.624;2023-03-16T14:54:58;3.27;;;1.70;;
7195;SDS011;3639;51.308;5.624;2023-03-16T14:57:24;2.03;;;1.37;;
7195;SDS011;3639;51.308;5.624;2023-03-16T14:59:54;3.77;;;1.57;;
7195;SDS011;3639;51.308;5.624;2023-03-16T15:04:56;2.53;;;1.40;;
7195;SDS011;3639;51.308;5.624;2023-03-16T15:07:27;2.40;;;1.40;;
7195;SDS011;3639;51.308;5.624;2023-03-16T15:09:56;4.93;;;1.67;;
7195;SDS011;3639;51.308;5.624;2023-03-16T15:12:31;3.30;;;1.43;;
7195;SDS011;3639;51.308;5.624;2023-03-16T15:14:58;2.37;;;1.50;;
7195;SDS011;3639;51.308;5.624;2023-03-16T15:17:40;2.80;;;1.50;;
7195;SDS011;3639;51.308;5.624;2023-03-16T15:20:09;1.80;;;1.30;;
7195;SDS011;3639;51.308;5.624;2023-03-16T15:22:42;1.93;;;1.53;;
7195;SDS011;3639;51.308;5.624;2023-03-16T15:25:19;2.37;;;1.57;;
7195;SDS011;3639;51.308;5.624;2023-03-16T15:30:46;2.63;;;1.37;;
7195;SDS011;3639;51.308;5.624;2023-03-16T15:33:14;1.77;;;1.67;;
7195;SDS011;3639;51.308;5.624;2023-03-16T15:35:41;6.37;;;1.73;;
7195;SDS011;3639;51.308;5.624;2023-03-16T15:38:14;1.73;;;1.33;;
7195;SDS011;3639;51.308;5.624;2023-03-16T15:41:07;1.70;;;1.40;;
7195;SDS011;3639;51.308;5.624;2023-03-16T15:43:34;1.93;;;1.47;;
7195;SDS011;3639;51.308;5.624;2023-03-16T15:46:01;2.10;;;1.30;;
7195;SDS011;3639;51.308;5.624;2023-03-16T15:48:28;2.47;;;1.50;;
7195;SDS011;3639;51.308;5.624;2023-03-16T15:50:54;1.83;;;1.30;;
7195;SDS011;3639;51.308;5.624;2023-03-16T15:53:25;3.77;;;1.60;;
7195;SDS011;3639;51.308;5.624;2023-03-16T15:55:55;1.40;;;1.30;;
7195;SDS011;3639;51.308;5.624;2023-03-16T15:58:27;2.50;;;1.73;;
7195;SDS011;3639;51.308;5.624;2023-03-16T16:00:55;3.23;;;1.53;;
7195;SDS011;3639;51.308;5.624;2023-03-16T16:03:23;3.07;;;1.50;;
7195;SDS011;3639;51.308;5.624;2023-03-16T16:05:49;6.27;;;1.70;;
7195;SDS011;3639;51.308;5.624;2023-03-16T16:08:15;7.07;;;2.63;;
7195;SDS011;3639;51.308;5.624;2023-03-16T16:10:41;3.27;;;1.23;;
7195;SDS011;3639;51.308;5.624;2023-03-16T16:13:10;2.00;;;1.53;;
7195;SDS011;3639;51.308;5.624;2023-03-16T16:15:51;4.20;;;1.60;;
7195;SDS011;3639;51.308;5.624;2023-03-16T16:18:24;5.20;;;1.40;;
7195;SDS011;3639;51.308;5.624;2023-03-16T16:20:54;1.43;;;1.33;;
7195;SDS011;3639;51.308;5.624;2023-03-16T16:23:20;2.63;;;1.30;;
7195;SDS011;3639;51.308;5.624;2023-03-16T16:25:47;1.40;;;1.30;;
7195;SDS011;3639;51.308;5.624;2023-03-16T16:28:22;2.03;;;1.67;;
7195;SDS011;3639;51.308;5.624;2023-03-16T16:30:50;1.83;;;1.30;;
7195;SDS011;3639;51.308;5.624;2023-03-16T16:33:19;2.00;;;1.70;;
7195;SDS011;3639;51.308;5.624;2023-03-16T16:35:47;3.93;;;1.83;;
7195;SDS011;3639;51.308;5.624;2023-03-16T16:38:12;2.50;;;1.53;;
7195;SDS011;3639;51.308;5.624;2023-03-16T16:40:38;2.83;;;1.57;;
7195;SDS011;3639;51.308;5.624;2023-03-16T16:43:12;2.47;;;1.90;;
7195;SDS011;3639;51.308;5.624;2023-03-16T16:45:50;2.13;;;1.80;;
7195;SDS011;3639;51.308;5.624;2023-03-16T16:48:23;3.23;;;1.77;;
7195;SDS011;3639;51.308;5.624;2023-03-16T16:50:59;3.93;;;2.07;;
7195;SDS011;3639;51.308;5.624;2023-03-16T16:53:25;1.70;;;1.30;;
7195;SDS011;3639;51.308;5.624;2023-03-16T16:55:52;1.77;;;1.40;;